Ogilvie, Minnesota
Current Conditions -  °F | °C
As of 9:16 PM on Friday 21 Nov 2014 (Local Time) from KCBG Reporting Station
Clear Clear  
Wind Chill: 21°   Ceiling: Unl
Heat Index: 30°   Visibility: 10mi
Dew Point: 21°   Wind: 10mph
Humidity: 69%   Direction: 180°S
Pressure: 29.84"   Gusts: NA
Location:  45.83°N, 93.43°W
Report Text: KCBG 220316Z AUTO 18009KT 10SM CLR M01/M06 A2984 RMK AO2
Loading
Personal Weather Stations






























Interactive Weather Map New forecast layout! Learn more

10-Day Weather Forecast

Advertisements
Track Severe Weather on mobile